Time;durP1;ratioP1;P1;durP2;ratioP2;P2;SDS_P1;SDS_P2;PMS_P1;PMS_P2;Temp;Humidity;BMP_temperature;BMP_pressure;BME280_temperature;BME280_humidity;BME280_pressure;Samples;Min_cycle;Max_cycle;Signal;HPM_P1;HPM_P2
2022/01/02 00:01:22;;;;;;;8.48;4.25;;;;;;;8.13;100.00;99639.97;4496444;31;20096;-75
2022/01/02 00:03:54;;;;;;;9.10;4.25;;;;;;;8.20;100.00;99638.62;4499988;31;20196;-76
2022/01/02 00:06:23;;;;;;;9.48;5.10;;;;;;;8.10;100.00;99633.19;4501434;31;20063;-75
2022/01/02 00:09:11;;;;;;;8.60;4.65;;;;;;;8.03;100.00;99633.69;4501216;31;20103;-76
2022/01/02 00:11:40;;;;;;;6.68;4.25;;;;;;;8.07;100.00;99638.59;4499765;31;20122;-76
2022/01/02 00:14:10;;;;;;;9.45;4.10;;;;;;;8.05;100.00;99631.81;4499965;31;20491;-76
2022/01/02 00:16:38;;;;;;;11.20;4.95;;;;;;;8.02;100.00;99634.59;4501081;31;20130;-76
2022/01/02 00:19:17;;;;;;;9.23;4.30;;;;;;;8.07;100.00;99638.59;4501081;31;20171;-76
2022/01/02 00:21:46;;;;;;;9.15;4.28;;;;;;;8.13;100.00;99634.72;4501081;31;20088;-76
2022/01/02 00:24:16;;;;;;;13.82;4.62;;;;;;;8.22;100.00;99628.94;4501184;31;20092;-76
2022/01/02 00:26:46;;;;;;;7.30;4.28;;;;;;;8.22;100.00;99626.34;4501366;31;20158;-76
2022/01/02 00:29:13;;;;;;;7.82;3.87;;;;;;;8.24;100.00;99628.84;4499840;31;20096;-76
2022/01/02 00:31:41;;;;;;;9.40;4.30;;;;;;;8.23;100.00;99627.16;4501122;31;20099;-76
2022/01/02 00:34:09;;;;;;;10.45;4.55;;;;;;;8.17;100.00;99633.59;4501283;31;20429;-76
2022/01/02 00:36:36;;;;;;;8.35;4.85;;;;;;;8.08;100.00;99634.22;4499735;31;20498;-76
2022/01/02 00:39:06;;;;;;;8.95;4.50;;;;;;;8.03;100.00;99633.69;4500034;31;20096;-76
2022/01/02 00:41:38;;;;;;;11.10;4.47;;;;;;;7.93;100.00;99626.47;4500893;31;20123;-75
2022/01/02 00:44:31;;;;;;;7.78;4.15;;;;;;;7.88;100.00;99638.13;4501054;31;20544;-76
2022/01/02 00:47:07;;;;;;;9.80;4.50;;;;;;;7.83;100.00;99633.19;4501066;31;20096;-76
2022/01/02 00:49:40;;;;;;;8.98;4.85;;;;;;;7.67;100.00;99630.72;4500927;31;20089;-75
2022/01/02 00:52:13;;;;;;;11.73;5.25;;;;;;;7.63;100.00;99637.03;4499885;31;20108;-75
2022/01/02 00:54:44;;;;;;;7.97;4.62;;;;;;;7.62;100.00;99646.66;4501187;31;20149;-75
2022/01/02 00:57:18;;;;;;;9.00;4.55;;;;;;;7.62;100.00;99638.00;4501043;31;20088;-76
2022/01/02 00:59:53;;;;;;;;;;;;;;;7.53;100.00;99635.97;4500570;31;20096;-76
2022/01/02 01:02:24;;;;;;;;;;;;;;;7.50;100.00;99639.59;4485601;31;19979;-76
2022/01/02 01:04:52;;;;;;;8.90;5.30;;;;;;;7.63;100.00;99635.28;4484413;32;19979;-76
2022/01/02 01:07:19;;;;;;;11.93;4.68;;;;;;;7.58;100.00;99637.34;4484866;31;20139;-76
2022/01/02 01:09:48;;;;;;;8.60;4.37;;;;;;;7.57;100.00;99630.47;4483844;32;20409;-76
2022/01/02 01:12:16;;;;;;;10.63;4.93;;;;;;;7.59;100.00;99632.97;4483651;32;20127;-75
2022/01/02 01:14:43;;;;;;;9.63;4.70;;;;;;;7.64;100.00;99634.38;4484951;32;20136;-76
2022/01/02 01:17:13;;;;;;;7.90;4.57;;;;;;;7.63;100.00;99629.22;4483869;32;20084;-75
2022/01/02 01:19:41;;;;;;;8.50;4.40;;;;;;;7.59;100.00;99633.81;4484722;31;20443;-75
2022/01/02 01:22:08;;;;;;;9.25;4.37;;;;;;;7.63;100.00;99640.50;4485042;31;20152;-76
2022/01/02 01:24:36;;;;;;;11.02;5.00;;;;;;;7.59;100.00;99648.63;4483919;32;20205;-76
2022/01/02 01:27:06;;;;;;;10.05;5.32;;;;;;;7.65;100.00;99635.19;4485119;31;20160;-76
2022/01/02 01:29:34;;;;;;;9.25;5.30;;;;;;;7.51;100.00;99638.69;4484861;31;20128;-76
2022/01/02 01:32:06;;;;;;;8.15;4.85;;;;;;;7.62;100.00;99625.78;4484892;31;20104;-76
2022/01/02 01:34:34;;;;;;;11.48;5.03;;;;;;;7.52;100.00;99627.28;4485021;31;20080;-76
2022/01/02 01:37:02;;;;;;;10.52;4.87;;;;;;;7.56;100.00;99638.38;4484898;31;20107;-76
2022/01/02 01:39:30;;;;;;;9.13;4.78;;;;;;;7.50;100.00;99631.78;4484941;31;20124;-76
2022/01/02 01:42:06;;;;;;;8.02;4.55;;;;;;;7.44;100.00;99632.16;4484963;31;20155;-76
2022/01/02 01:47:14;;;;;;;8.27;4.55;;;;;;;7.39;100.00;99631.62;4484879;31;20135;-76
2022/01/02 01:49:42;;;;;;;9.90;4.90;;;;;;;7.44;100.00;99640.00;4484184;31;20105;-75
2022/01/02 01:52:10;;;;;;;13.95;4.87;;;;;;;7.39;100.00;99629.84;4484810;31;20104;-75
2022/01/02 01:54:37;;;;;;;9.43;4.60;;;;;;;7.43;100.00;99627.87;4484789;31;20096;-76
2022/01/02 01:57:05;;;;;;;7.65;4.40;;;;;;;7.42;100.00;99631.44;4484435;32;20089;-75
2022/01/02 01:59:32;;;;;;;7.75;4.25;;;;;;;7.41;100.00;99634.97;4483338;32;20495;-75
2022/01/02 02:01:59;;;;;;;9.23;4.78;;;;;;;7.54;100.00;99624.59;4499416;31;20462;-75
2022/01/02 02:04:28;;;;;;;11.30;5.25;;;;;;;7.44;100.00;99624.34;4499226;31;20083;-76
2022/01/02 02:06:58;;;;;;;9.43;5.18;;;;;;;7.42;100.00;99624.44;4500049;31;20131;-75
2022/01/02 02:09:37;;;;;;;11.55;5.43;;;;;;;7.41;100.00;99625.38;4500118;31;20740;-76
2022/01/02 02:12:05;;;;;;;12.30;4.95;;;;;;;7.42;100.00;99628.81;4500077;31;20110;-75
2022/01/02 02:14:33;;;;;;;10.45;4.97;;;;;;;7.48;100.00;99628.44;4500195;31;20556;-75
2022/01/02 02:17:00;;;;;;;7.87;4.82;;;;;;;7.44;100.00;99632.16;4500247;31;20100;-75
2022/01/02 02:19:28;;;;;;;7.85;4.60;;;;;;;7.44;100.00;99630.38;4499684;31;20153;-75
2022/01/02 02:21:56;;;;;;;10.18;5.00;;;;;;;7.53;100.00;99634.19;4500169;31;20545;-75
2022/01/02 02:24:23;;;;;;;9.48;4.95;;;;;;;7.59;100.00;99625.97;4499914;31;20095;-75
2022/01/02 02:26:52;;;;;;;10.07;5.07;;;;;;;7.53;100.00;99618.56;4500049;31;20156;-75
2022/01/02 02:29:19;;;;;;;10.65;4.47;;;;;;;7.50;100.00;99613.53;4499624;31;20096;-75
2022/01/02 02:31:46;;;;;;;10.20;4.70;;;;;;;7.45;100.00;99619.03;4499666;31;20463;-75
2022/01/02 02:34:14;;;;;;;11.12;5.28;;;;;;;7.42;100.00;99621.00;4499788;31;20116;-75
2022/01/02 02:36:41;;;;;;;11.02;5.10;;;;;;;7.43;100.00;99620.06;4499906;31;20104;-76
2022/01/02 02:39:08;;;;;;;9.57;4.55;;;;;;;7.48;100.00;99612.81;4499373;31;20442;-75
2022/01/02 02:41:37;;;;;;;8.93;4.55;;;;;;;7.55;100.00;99616.66;4499475;31;20160;-75
2022/01/02 02:44:15;;;;;;;10.43;5.15;;;;;;;7.45;100.00;99606.00;4499149;31;20110;-75
2022/01/02 02:49:29;;;;;;;9.52;5.25;;;;;;;7.50;100.00;99597.06;4499546;31;20115;-75
2022/01/02 02:52:06;;;;;;;13.90;5.75;;;;;;;7.46;100.00;99596.41;4499502;31;20092;-76
2022/01/02 02:54:35;;;;;;;9.52;4.82;;;;;;;7.49;100.00;99596.19;4499627;31;20370;-75
2022/01/02 02:57:11;;;;;;;9.25;4.90;;;;;;;7.49;100.00;99604.03;4499767;31;20160;-75
2022/01/02 02:59:38;;;;;;;12.55;5.32;;;;;;;7.41;100.00;99603.69;4499138;31;20512;-75
2022/01/02 03:02:06;;;;;;;9.55;4.60;;;;;;;7.33;100.00;99606.78;4484059;31;20437;-76
2022/01/02 03:04:34;;;;;;;9.50;5.00;;;;;;;7.29;100.00;99600.91;4486107;31;20096;-75
2022/01/02 03:07:01;;;;;;;10.15;4.68;;;;;;;7.36;100.00;99584.88;4485865;31;20088;-76
2022/01/02 03:09:39;;;;;;;6.70;4.28;;;;;;;7.40;100.00;99597.66;4485679;31;20120;-75
2022/01/02 03:12:09;;;;;;;10.88;4.65;;;;;;;7.46;100.00;99592.03;4486044;31;20478;-75
2022/01/02 03:14:36;;;;;;;9.05;4.22;;;;;;;7.56;100.00;99581.84;4485929;31;20096;-75
2022/01/02 03:17:04;;;;;;;9.70;4.43;;;;;;;7.52;100.00;99585.56;4485778;31;20084;-75
2022/01/02 03:19:33;;;;;;;10.13;4.62;;;;;;;7.66;100.00;99579.50;4485900;31;20172;-75
2022/01/02 03:22:01;;;;;;;10.00;4.82;;;;;;;7.64;100.00;99584.81;4486068;31;20096;-76
2022/01/02 03:24:29;;;;;;;10.15;4.97;;;;;;;7.61;100.00;99581.56;4485811;31;20155;-76
2022/01/02 03:26:56;;;;;;;10.93;4.53;;;;;;;7.68;100.00;99584.63;4485708;32;20123;-76
2022/01/02 03:29:23;;;;;;;9.60;4.75;;;;;;;7.70;100.00;99583.56;4485919;31;20088;-76
2022/01/02 03:31:51;;;;;;;8.05;4.53;;;;;;;7.74;100.00;99573.78;4485945;31;20147;-76
2022/01/02 03:34:19;;;;;;;7.55;4.03;;;;;;;7.69;100.00;99573.25;4486032;31;20167;-76
2022/01/02 03:36:46;;;;;;;9.43;4.22;;;;;;;7.79;100.00;99569.94;4485578;31;20470;-76
2022/01/02 03:39:13;;;;;;;9.05;4.05;;;;;;;7.86;100.00;99562.56;4485756;32;20096;-76
2022/01/02 03:41:41;;;;;;;8.68;3.97;;;;;;;7.85;100.00;99567.88;4485758;31;20100;-76
2022/01/02 03:44:09;;;;;;;7.35;4.18;;;;;;;7.83;100.00;99562.75;4485726;31;20084;-76
2022/01/02 03:46:37;;;;;;;6.30;3.87;;;;;;;7.79;100.00;99550.84;4485878;31;20108;-76
2022/01/02 03:49:05;;;;;;;9.10;4.18;;;;;;;7.66;100.00;99555.19;4485671;31;20168;-76
2022/01/02 03:51:32;;;;;;;7.72;4.00;;;;;;;7.62;100.00;99550.16;4485879;31;20163;-76
2022/01/02 03:54:00;;;;;;;6.53;3.35;;;;;;;7.49;100.00;99557.09;4485788;32;20099;-76
2022/01/02 03:56:27;;;;;;;6.93;3.85;;;;;;;7.45;100.00;99563.47;4485778;32;20112;-76
2022/01/02 03:58:54;;;;;;;8.18;4.32;;;;;;;7.47;100.00;99569.41;4485809;32;20179;-76
2022/01/02 04:01:22;;;;;;;7.22;4.20;;;;;;;7.39;100.00;99563.84;4496324;31;20104;-76
2022/01/02 04:03:49;;;;;;;9.18;3.90;;;;;;;7.41;100.00;99562.81;4501183;31;20472;-76
2022/01/02 04:06:16;;;;;;;9.80;4.12;;;;;;;7.59;100.00;99558.19;4501654;31;20087;-76
2022/01/02 04:08:45;;;;;;;8.50;4.03;;;;;;;7.63;100.00;99566.63;4501316;31;20932;-76
2022/01/02 04:11:13;;;;;;;6.55;3.60;;;;;;;7.69;100.00;99576.69;4501401;31;20119;-76
2022/01/02 04:13:40;;;;;;;8.18;4.30;;;;;;;7.70;100.00;99573.13;4500932;31;20589;-76
2022/01/02 04:16:07;;;;;;;8.00;3.75;;;;;;;7.76;100.00;99572.75;4501261;31;20474;-75
2022/01/02 04:18:35;;;;;;;10.65;3.85;;;;;;;7.79;100.00;99561.28;4501377;31;20131;-75
2022/01/02 04:21:02;;;;;;;7.22;3.80;;;;;;;7.83;100.00;99560.16;4501485;31;20100;-76
2022/01/02 04:23:29;;;;;;;7.37;3.90;;;;;;;7.85;100.00;99560.06;4501255;31;20079;-76
2022/01/02 04:25:56;;;;;;;7.03;4.03;;;;;;;7.83;100.00;99557.53;4501149;31;20111;-76
2022/01/02 04:28:23;;;;;;;10.15;3.85;;;;;;;7.76;100.00;99556.25;4501198;31;20121;-75
2022/01/02 04:30:50;;;;;;;11.30;3.65;;;;;;;7.74;100.00;99558.97;4501218;31;20084;-75
2022/01/02 04:33:18;;;;;;;7.45;3.60;;;;;;;7.73;99.69;99561.69;4501239;31;20100;-75
2022/01/02 04:35:45;;;;;;;6.40;3.28;;;;;;;7.80;99.71;99565.56;4500140;31;20092;-76
2022/01/02 04:38:14;;;;;;;7.30;3.80;;;;;;;7.87;99.14;99559.00;4501020;31;20586;-75
2022/01/02 04:40:42;;;;;;;9.55;3.55;;;;;;;7.84;99.01;99559.19;4500872;31;20521;-75
2022/01/02 04:43:09;;;;;;;6.35;3.45;;;;;;;7.73;99.82;99562.50;4501027;31;20087;-75
2022/01/02 04:45:36;;;;;;;9.75;3.92;;;;;;;7.72;99.82;99566.06;4501175;31;20514;-76
2022/01/02 04:48:04;;;;;;;10.18;4.05;;;;;;;7.73;100.00;99564.28;4501274;31;20996;-76
2022/01/02 04:50:31;;;;;;;13.57;4.03;;;;;;;7.67;100.00;99567.28;4501226;31;20487;-75
2022/01/02 04:52:58;;;;;;;9.30;3.90;;;;;;;7.62;100.00;99560.59;4501008;31;20603;-75
2022/01/02 04:55:26;;;;;;;7.90;3.80;;;;;;;7.64;100.00;99565.72;4500926;31;20141;-76
2022/01/02 04:57:53;;;;;;;9.00;3.92;;;;;;;7.57;100.00;99557.47;4501229;31;20096;-75
2022/01/02 05:00:20;;;;;;;11.05;4.72;;;;;;;7.51;100.00;99555.25;4496475;31;20114;-75
2022/01/02 05:02:49;;;;;;;8.98;4.78;;;;;;;7.37;100.00;99550.87;4485356;31;20096;-75
2022/01/02 05:05:17;;;;;;;11.57;4.40;;;;;;;7.28;100.00;99556.69;4485118;31;20092;-75
2022/01/02 05:07:45;;;;;;;9.02;4.12;;;;;;;7.13;100.00;99548.09;4484998;31;20100;-75
2022/01/02 05:10:13;;;;;;;13.68;4.43;;;;;;;7.01;100.00;99554.03;4484924;31;20748;-76
2022/01/02 05:12:40;;;;;;;13.25;4.20;;;;;;;6.92;100.00;99550.25;4485082;31;20774;-75
2022/01/02 05:15:08;;;;;;;7.70;3.97;;;;;;;6.99;100.00;99555.91;4484863;31;20085;-76
2022/01/02 05:17:36;;;;;;;7.93;3.30;;;;;;;7.12;100.00;99549.00;4484946;31;20105;-76
2022/01/02 05:20:04;;;;;;;9.15;3.90;;;;;;;7.17;100.00;99546.94;4485053;31;20089;-76
2022/01/02 05:22:32;;;;;;;11.90;4.35;;;;;;;7.34;100.00;99542.44;4485158;31;20107;-76
2022/01/02 05:24:59;;;;;;;8.27;3.85;;;;;;;7.46;100.00;99541.66;4484082;31;20555;-76
2022/01/02 05:27:27;;;;;;;8.38;3.80;;;;;;;7.57;100.00;99541.81;4484940;32;20104;-76
2022/01/02 05:29:54;;;;;;;7.87;3.92;;;;;;;7.56;100.00;99539.31;4483694;32;20108;-76
2022/01/02 05:32:21;;;;;;;8.80;3.67;;;;;;;7.66;100.00;99539.53;4484796;31;20096;-76
2022/01/02 05:34:48;;;;;;;7.28;3.20;;;;;;;7.64;100.00;99539.62;4485052;31;20096;-76
2022/01/02 05:37:15;;;;;;;8.88;4.25;;;;;;;7.70;100.00;99544.44;4483770;32;20100;-76
2022/01/02 05:39:44;;;;;;;7.93;3.75;;;;;;;7.46;100.00;99544.25;4484829;31;20088;-76
2022/01/02 05:42:11;;;;;;;9.77;3.65;;;;;;;7.53;100.00;99536.91;4485057;31;20153;-76
2022/01/02 05:44:38;;;;;;;9.43;3.70;;;;;;;7.56;100.00;99526.28;4484641;32;20088;-76
2022/01/02 05:47:06;;;;;;;9.05;3.75;;;;;;;7.45;100.00;99532.19;4484865;31;20125;-76
2022/01/02 05:49:38;;;;;;;8.07;3.92;;;;;;;7.23;100.00;99533.53;4484754;31;20424;-76
2022/01/02 05:52:06;;;;;;;8.40;3.78;;;;;;;7.31;100.00;99529.59;4484846;31;20118;-76
2022/01/02 05:54:33;;;;;;;11.15;3.97;;;;;;;7.27;100.00;99524.59;4484527;31;20100;-76
2022/01/02 05:57:00;;;;;;;8.00;3.58;;;;;;;7.17;100.00;99523.50;4484607;31;20096;-76
2022/01/02 05:59:27;;;;;;;7.05;3.50;;;;;;;7.09;100.00;99523.16;4484622;31;20889;-75
2022/01/02 06:01:55;;;;;;;7.32;3.90;;;;;;;7.22;100.00;99525.81;4499238;31;20156;-76
2022/01/02 06:04:24;;;;;;;8.15;4.53;;;;;;;7.22;100.00;99517.97;4500491;31;20153;-76
2022/01/02 06:06:51;;;;;;;9.10;4.57;;;;;;;7.29;100.00;99522.72;4500297;31;20091;-76
2022/01/02 06:09:19;;;;;;;7.68;3.92;;;;;;;7.22;100.00;99516.22;4500339;31;20100;-75
2022/01/02 06:11:46;;;;;;;8.48;3.75;;;;;;;7.18;100.00;99517.34;4500368;31;20087;-76
2022/01/02 06:14:17;;;;;;;7.15;4.03;;;;;;;6.96;100.00;99514.41;4500226;31;20092;-76
2022/01/02 06:16:44;;;;;;;10.63;4.03;;;;;;;6.83;100.00;99520.41;4500113;31;20119;-76
2022/01/02 06:19:11;;;;;;;8.80;3.92;;;;;;;6.79;100.00;99526.72;4499964;31;20115;-76
2022/01/02 06:21:39;;;;;;;7.87;3.90;;;;;;;6.93;100.00;99525.84;4498940;31;20126;-75
2022/01/02 06:24:06;;;;;;;8.00;3.55;;;;;;;7.00;100.00;99523.72;4499895;31;20518;-76
2022/01/02 06:26:34;;;;;;;6.43;3.08;;;;;;;6.81;100.00;99521.41;4500074;31;20168;-76
2022/01/02 06:29:03;;;;;;;5.70;3.35;;;;;;;6.50;100.00;99515.47;4499723;31;20148;-75
2022/01/02 06:31:30;;;;;;;7.05;3.47;;;;;;;6.24;100.00;99517.03;4500145;31;20096;-76
2022/01/02 06:33:58;;;;;;;9.32;4.28;;;;;;;6.40;100.00;99523.00;4499880;31;20084;-75
2022/01/02 06:36:25;;;;;;;7.43;3.70;;;;;;;6.18;100.00;99523.44;4499627;31;20087;-75
2022/01/02 06:38:52;;;;;;;8.73;3.67;;;;;;;5.87;100.00;99526.03;4502077;31;20122;-75
2022/01/02 06:41:21;;;;;;;8.43;4.22;;;;;;;5.60;100.00;99522.41;4501865;31;20615;-76
2022/01/02 06:43:52;;;;;;;6.87;3.80;;;;;;;5.63;100.00;99532.62;4501651;31;20144;-76
2022/01/02 06:46:20;;;;;;;6.35;3.60;;;;;;;5.51;100.00;99524.59;4502048;31;20100;-76
2022/01/02 06:48:48;;;;;;;6.80;3.55;;;;;;;5.35;100.00;99528.97;4501830;31;20100;-76
2022/01/02 06:51:36;;;;;;;8.07;3.58;;;;;;;5.22;100.00;99520.19;4501969;31;20096;-76
2022/01/02 06:54:03;;;;;;;6.60;3.20;;;;;;;5.16;100.00;99529.13;4501999;31;20092;-75
2022/01/02 06:56:30;;;;;;;5.53;3.40;;;;;;;5.19;100.00;99530.75;4501877;31;20095;-75
2022/01/02 06:58:58;;;;;;;7.85;4.03;;;;;;;5.06;100.00;99536.63;4502008;31;20161;-75
2022/01/02 07:01:25;;;;;;;8.35;4.30;;;;;;;4.95;100.00;99533.75;4501548;31;20088;-75
2022/01/02 07:03:52;;;;;;;11.05;4.60;;;;;;;4.79;100.00;99538.94;4501692;31;20084;-75
2022/01/02 07:06:20;;;;;;;10.80;4.35;;;;;;;4.82;100.00;99541.34;4501794;31;20169;-75
2022/01/02 07:08:47;;;;;;;9.90;5.18;;;;;;;4.88;100.00;99555.78;4501676;31;20771;-75
2022/01/02 07:11:14;;;;;;;10.63;5.75;;;;;;;4.89;100.00;99547.06;4501456;31;20096;-75
2022/01/02 07:13:42;;;;;;;13.93;5.55;;;;;;;5.01;100.00;99551.63;4500389;31;20079;-75
2022/01/02 07:16:09;;;;;;;9.73;5.55;;;;;;;5.08;100.00;99544.31;4501549;31;20100;-75
2022/01/02 07:18:36;;;;;;;8.93;5.00;;;;;;;5.27;100.00;99544.16;4501505;31;20092;-75
2022/01/02 07:21:03;;;;;;;11.27;5.57;;;;;;;5.46;100.00;99543.97;4501620;31;20628;-75
2022/01/02 07:23:30;;;;;;;9.95;5.68;;;;;;;5.67;100.00;99545.34;4501603;31;20127;-75
2022/01/02 07:25:58;;;;;;;10.38;5.60;;;;;;;5.86;100.00;99555.56;4501422;31;20123;-75
2022/01/02 07:28:25;;;;;;;9.88;5.85;;;;;;;6.00;100.00;99547.00;4501946;31;20135;-75
2022/01/02 07:30:52;;;;;;;12.25;5.70;;;;;;;5.99;100.00;99544.47;4501379;31;20804;-76
2022/01/02 07:33:19;;;;;;;12.82;5.97;;;;;;;6.05;100.00;99544.13;4501489;31;20096;-75
2022/01/02 07:35:46;;;;;;;11.35;5.87;;;;;;;6.13;100.00;99536.72;4501546;31;20100;-75
2022/01/02 07:38:29;;;;;;;9.98;5.40;;;;;;;6.31;100.00;99537.38;4501785;31;20102;-75
2022/01/02 07:40:57;;;;;;;9.75;4.72;;;;;;;6.47;100.00;99528.69;4501476;31;20122;-76
2022/01/02 07:43:24;;;;;;;10.07;4.25;;;;;;;6.66;100.00;99528.37;4501527;31;20148;-76
2022/01/02 07:45:51;;;;;;;6.07;3.97;;;;;;;6.80;100.00;99525.78;4501335;31;20126;-75
2022/01/02 07:48:19;;;;;;;5.87;3.37;;;;;;;6.85;100.00;99536.75;4500947;31;20156;-76
2022/01/02 07:50:46;;;;;;;9.23;3.70;;;;;;;7.02;100.00;99533.09;4501321;31;20162;-76
2022/01/02 07:53:13;;;;;;;6.93;3.33;;;;;;;7.07;100.00;99527.59;4501395;31;20156;-76
2022/01/02 07:55:40;;;;;;;6.78;4.60;;;;;;;7.13;100.00;99527.25;4501322;31;20438;-76
2022/01/02 07:58:12;;;;;;;7.50;3.30;;;;;;;7.25;100.00;99531.69;4501390;31;20110;-76
2022/01/02 08:00:40;;;;;;;4.68;3.20;;;;;;;7.37;100.00;99519.59;4494752;31;20096;-75
2022/01/02 08:03:08;;;;;;;9.57;4.05;;;;;;;7.54;99.50;99531.59;4485435;31;20442;-76
2022/01/02 08:05:39;;;;;;;7.28;3.50;;;;;;;7.67;98.37;99526.41;4485295;31;20256;-76
2022/01/02 08:08:06;;;;;;;7.95;3.37;;;;;;;7.72;97.59;99524.34;4484940;31;20131;-76
2022/01/02 08:10:33;;;;;;;9.07;3.45;;;;;;;7.82;97.04;99514.13;4485350;31;20473;-76
2022/01/02 08:13:01;;;;;;;5.07;3.20;;;;;;;8.04;95.71;99518.78;4484093;32;20156;-76
2022/01/02 08:15:28;;;;;;;6.00;2.67;;;;;;;8.14;95.23;99513.75;4485254;31;20108;-76
2022/01/02 08:17:55;;;;;;;4.60;2.72;;;;;;;8.28;94.52;99505.84;4485340;31;20092;-76
2022/01/02 08:20:22;;;;;;;4.22;2.62;;;;;;;8.41;92.03;99502.38;4485149;31;20496;-76
2022/01/02 08:22:50;;;;;;;4.25;2.28;;;;;;;8.55;89.45;99501.47;4485229;31;20157;-76
2022/01/02 08:25:17;;;;;;;7.25;2.72;;;;;;;8.54;89.00;99503.25;4485178;31;20097;-76
2022/01/02 08:27:44;;;;;;;6.55;3.20;;;;;;;8.64;87.50;99512.09;4485168;31;20173;-76
2022/01/02 08:30:12;;;;;;;6.20;3.22;;;;;;;8.76;86.75;99504.38;4485478;31;20446;-76
2022/01/02 08:32:39;;;;;;;5.28;2.70;;;;;;;8.78;86.01;99503.31;4485172;31;20092;-76
2022/01/02 08:35:07;;;;;;;5.22;2.70;;;;;;;8.84;85.87;99502.88;4485516;31;20104;-76
2022/01/02 08:37:34;;;;;;;5.90;2.62;;;;;;;8.91;84.52;99507.69;4485212;31;20556;-76
2022/01/02 08:40:01;;;;;;;5.97;2.15;;;;;;;8.94;84.16;99513.53;4485088;31;20119;-76
2022/01/02 08:42:28;;;;;;;5.12;2.12;;;;;;;9.05;83.84;99510.12;4485224;31;20089;-76
2022/01/02 08:44:55;;;;;;;3.67;2.15;;;;;;;9.09;82.77;99495.91;4485009;31;20089;-76
2022/01/02 08:47:23;;;;;;;4.07;2.67;;;;;;;9.05;83.17;99499.69;4485054;31;20097;-76
2022/01/02 08:49:50;;;;;;;5.93;2.25;;;;;;;9.16;82.30;99491.06;4485127;31;20088;-76
2022/01/02 08:52:18;;;;;;;3.83;2.62;;;;;;;9.26;82.07;99491.25;4485088;31;20096;-76
2022/01/02 08:54:45;;;;;;;5.12;2.50;;;;;;;9.39;81.04;99485.03;4485147;31;20085;-76
2022/01/02 08:57:12;;;;;;;3.75;2.30;;;;;;;9.50;80.89;99486.03;4485161;31;20096;-76
2022/01/02 08:59:39;;;;;;;5.53;2.35;;;;;;;9.66;80.66;99485.72;4483828;31;20582;-76
2022/01/02 09:02:07;;;;;;;5.18;2.00;;;;;;;9.68;80.03;99479.44;4485205;31;20088;-76
2022/01/02 09:04:34;;;;;;;2.75;1.45;;;;;;;9.84;79.85;99480.91;4485019;32;20089;-76
2022/01/02 09:07:01;;;;;;;4.87;2.25;;;;;;;9.97;79.25;99480.84;4484972;31;20100;-76
2022/01/02 09:09:29;;;;;;;2.95;1.80;;;;;;;10.06;78.86;99473.09;4483789;32;20100;-76
2022/01/02 09:11:57;;;;;;;2.85;1.73;;;;;;;10.13;78.42;99476.94;4485179;31;20089;-76
2022/01/02 09:14:28;;;;;;;3.78;1.83;;;;;;;10.07;77.69;99485.25;4484940;31;20413;-76
2022/01/02 09:16:56;;;;;;;3.95;2.03;;;;;;;10.22;76.84;99485.03;4485098;31;20100;-76
2022/01/02 09:19:23;;;;;;;4.55;1.90;;;;;;;10.10;77.87;99479.78;4484860;31;20092;-76
2022/01/02 09:21:50;;;;;;;8.38;2.35;;;;;;;10.24;76.36;99472.66;4485067;31;20119;-76
2022/01/02 09:24:17;;;;;;;3.70;2.00;;;;;;;10.26;76.82;99475.97;4485088;31;20121;-76
2022/01/02 09:26:44;;;;;;;6.00;1.85;;;;;;;10.43;76.69;99467.72;4483406;32;20123;-76
2022/01/02 09:29:12;;;;;;;3.58;1.85;;;;;;;10.34;75.75;99471.03;4484824;31;20164;-76
2022/01/02 09:31:40;;;;;;;4.62;2.22;;;;;;;10.52;75.00;99473.16;4484646;31;20092;-76
2022/01/02 09:34:07;;;;;;;3.22;1.70;;;;;;;10.64;74.34;99474.84;4484806;31;20096;-76
2022/01/02 09:36:35;;;;;;;3.00;1.58;;;;;;;10.69;74.07;99477.94;4484771;31;20100;-76
2022/01/02 09:39:03;;;;;;;3.97;1.87;;;;;;;10.67;74.12;99469.34;4484603;31;20138;-76
2022/01/02 09:41:30;;;;;;;3.85;1.95;;;;;;;10.71;73.16;99465.53;4484714;31;20612;-76
2022/01/02 09:43:58;;;;;;;3.90;1.80;;;;;;;10.79;73.06;99451.81;4483588;32;20101;-76
2022/01/02 09:46:27;;;;;;;4.07;1.85;;;;;;;10.84;73.06;99439.22;4484755;31;20141;-76
2022/01/02 09:48:55;;;;;;;4.35;1.55;;;;;;;11.08;72.12;99446.91;4484300;31;20111;-76
2022/01/02 09:51:25;;;;;;;4.20;1.80;;;;;;;11.12;71.54;99424.69;4484640;31;20093;-76
2022/01/02 09:53:54;;;;;;;4.45;1.95;;;;;;;11.07;70.76;99423.44;4484614;32;20481;-76
2022/01/02 09:56:22;;;;;;;2.95;1.98;;;;;;;11.12;72.30;99411.59;4484453;31;20092;-76
2022/01/02 09:58:50;;;;;;;3.58;1.80;;;;;;;11.14;71.21;99407.06;4484615;31;20429;-76
2022/01/02 10:01:22;;;;;;;3.35;1.90;;;;;;;11.13;70.66;99401.94;4494762;31;20104;-76
2022/01/02 10:03:53;;;;;;;7.07;2.20;;;;;;;11.22;71.83;99401.19;4500258;31;20092;-76
2022/01/02 10:06:21;;;;;;;4.43;2.40;;;;;;;11.29;71.18;99402.34;4500227;31;20103;-76
2022/01/02 10:08:48;;;;;;;3.75;1.95;;;;;;;11.41;70.80;99399.66;4500072;31;20092;-76
2022/01/02 10:11:21;;;;;;;3.00;1.77;;;;;;;11.45;70.06;99414.22;4500592;31;20110;-76
2022/01/02 10:14:02;;;;;;;2.37;1.85;;;;;;;11.63;70.77;99415.31;4501911;31;20093;-76
2022/01/02 10:16:33;;;;;;;4.20;1.90;;;;;;;11.56;70.73;99402.81;4502235;31;20175;-76
2022/01/02 10:19:18;;;;;;;6.28;2.03;;;;;;;11.44;69.28;99404.66;4501886;31;20087;-76
2022/01/02 10:21:58;;;;;;;4.35;2.10;;;;;;;11.49;70.10;99405.97;4502061;31;20088;-76
2022/01/02 10:24:30;;;;;;;6.25;2.00;;;;;;;11.63;69.70;99398.72;4502100;31;20111;-76
2022/01/02 10:27:09;;;;;;;4.32;2.15;;;;;;;11.89;68.63;99399.16;4501917;31;20085;-76
2022/01/02 10:29:50;;;;;;;3.33;1.75;;;;;;;12.00;68.63;99382.50;4501891;31;20103;-76
2022/01/02 10:32:39;;;;;;;2.53;1.40;;;;;;;11.88;65.93;99379.09;4501931;31;20080;-76
2022/01/02 10:35:26;;;;;;;2.80;1.60;;;;;;;12.07;66.97;99375.78;4501940;31;20088;-76
2022/01/02 10:37:56;;;;;;;4.28;2.30;;;;;;;12.07;67.88;99352.97;4501849;31;20151;-76
2022/01/02 10:40:40;;;;;;;5.25;3.37;;;;;;;11.90;68.70;99351.75;4500431;31;20461;-76
2022/01/02 10:43:30;;;;;;;5.90;3.15;;;;;;;12.03;67.41;99350.75;4501863;31;20076;-76
2022/01/02 10:46:02;;;;;;;5.40;2.72;;;;;;;11.81;67.96;99356.94;4501895;31;20130;-76
2022/01/02 10:48:37;;;;;;;5.07;2.92;;;;;;;11.74;68.68;99348.78;4502168;31;20529;-76
2022/01/02 10:51:07;;;;;;;4.68;2.90;;;;;;;11.55;70.38;99346.88;4501572;31;20103;-76
2022/01/02 10:53:46;;;;;;;4.10;2.60;;;;;;;11.52;70.03;99344.50;4501892;31;20132;-76
2022/01/02 10:56:20;;;;;;;4.60;2.60;;;;;;;11.36;71.66;99337.09;4500575;31;20108;-76
2022/01/02 10:58:47;;;;;;;6.47;3.20;;;;;;;11.34;71.19;99331.97;4502243;31;20433;-76
2022/01/02 11:01:15;;;;;;;7.25;3.05;;;;;;;11.23;72.52;99324.16;4491167;31;20096;-76
2022/01/02 11:03:44;;;;;;;5.32;2.85;;;;;;;11.08;72.92;99330.69;4484783;32;20080;-76
2022/01/02 11:06:17;;;;;;;6.95;3.58;;;;;;;11.18;72.84;99331.59;4485858;31;20108;-76
2022/01/02 11:08:49;;;;;;;6.18;3.05;;;;;;;11.10;74.04;99323.53;4484875;32;20105;-76
2022/01/02 11:11:18;;;;;;;5.50;3.10;;;;;;;11.13;73.60;99318.03;4484495;32;20123;-76
2022/01/02 11:13:45;;;;;;;4.28;3.03;;;;;;;11.12;73.55;99311.12;4485734;31;20103;-76
2022/01/02 11:16:12;;;;;;;7.30;2.87;;;;;;;11.18;72.86;99311.44;4485711;31;20149;-76
2022/01/02 11:18:40;;;;;;;6.72;3.45;;;;;;;11.21;73.43;99309.53;4484573;32;20131;-76
2022/01/02 11:21:10;;;;;;;6.57;3.20;;;;;;;11.13;74.09;99308.37;4485599;31;20147;-76
2022/01/02 11:23:57;;;;;;;5.45;3.10;;;;;;;11.15;74.74;99301.19;4485659;31;20110;-76
2022/01/02 11:26:37;;;;;;;7.45;3.37;;;;;;;11.33;74.09;99298.81;4484618;32;20439;-76
2022/01/02 11:29:14;;;;;;;5.68;3.22;;;;;;;11.21;74.33;99288.56;4484926;32;20115;-76
2022/01/02 11:31:46;;;;;;;6.40;3.40;;;;;;;11.24;74.16;99277.81;4485964;31;20088;-76
2022/01/02 11:34:32;;;;;;;5.12;3.10;;;;;;;11.27;74.59;99272.28;4486055;31;20140;-76
2022/01/02 11:37:11;;;;;;;5.10;2.95;;;;;;;11.32;73.98;99273.53;4485713;31;20094;-76
2022/01/02 11:39:55;;;;;;;6.62;2.65;;;;;;;11.40;74.22;99267.69;4485523;31;20154;-76
2022/01/02 11:42:36;;;;;;;6.60;3.30;;;;;;;11.46;74.29;99258.44;4485479;31;20565;-76
2022/01/02 11:45:29;;;;;;;5.55;3.30;;;;;;;11.39;75.12;99255.50;4485609;31;20106;-76
2022/01/02 11:47:57;;;;;;;5.05;3.70;;;;;;;11.50;75.53;99247.53;4478855;32;20392;-76
2022/01/02 11:50:30;;;;;;;8.93;4.12;;;;;;;11.63;75.41;99251.78;4485729;31;20100;-76